Time;durP1;ratioP1;P1;durP2;ratioP2;P2;SDS_P1;SDS_P2;PMS_P1;PMS_P2;Temp;Humidity;BMP_temperature;BMP_pressure;BME280_temperature;BME280_humidity;BME280_pressure;Samples;Min_cycle;Max_cycle;Signal;HPM_P1;HPM_P2
2022/04/30 00:00:05;;;;;;;0.10;0.10;;;;;;;;;;4794187;29;20053;-92
2022/04/30 00:02:31;;;;;;;0.10;0.10;;;;;;;;;;4794518;29;20479;-91
2022/04/30 00:04:57;;;;;;;0.10;0.10;;;;;;;;;;4809413;29;20110;-92
2022/04/30 00:07:23;;;;;;;0.10;0.10;;;;;;;;;;4823983;29;20042;-91
2022/04/30 00:09:49;;;;;;;0.10;0.10;;;;;;;;;;4793814;29;20049;-91
2022/04/30 00:12:16;;;;;;;0.10;0.10;;;;;;;;;;4794006;29;20570;-91
2022/04/30 00:14:42;;;;;;;0.10;0.10;;;;;;;;;;4809319;29;20042;-92
2022/04/30 00:17:09;;;;;;;0.10;0.10;;;;;;;;;;4824070;29;20464;-92
2022/04/30 00:19:35;;;;;;;0.10;0.10;;;;;;;;;;4793917;29;20053;-91
2022/04/30 00:22:00;;;;;;;0.10;0.10;;;;;;;;;;4793929;29;20050;-91
2022/04/30 00:24:27;;;;;;;0.10;0.10;;;;;;;;;;4794057;29;20054;-91
2022/04/30 00:26:58;;;;;;;0.10;0.10;;;;;;;;;;4824174;29;20376;-92
2022/04/30 00:29:24;;;;;;;0.13;0.13;;;;;;;;;;4794069;29;20046;-92
2022/04/30 00:31:50;;;;;;;0.10;0.10;;;;;;;;;;4794033;29;20045;-91
2022/04/30 00:34:16;;;;;;;0.10;0.10;;;;;;;;;;4808191;29;20121;-91
2022/04/30 00:36:43;;;;;;;0.22;0.22;;;;;;;;;;4793336;29;20133;-91
2022/04/30 00:39:09;;;;;;;0.10;0.10;;;;;;;;;;4808464;29;20046;-91
2022/04/30 00:41:36;;;;;;;0.10;0.10;;;;;;;;;;4809163;29;20102;-91
2022/04/30 00:44:02;;;;;;;0.10;0.10;;;;;;;;;;4808266;29;20050;-91
2022/04/30 00:46:30;;;;;;;0.10;0.10;;;;;;;;;;4793279;29;20103;-91
2022/04/30 00:48:57;;;;;;;0.10;0.10;;;;;;;;;;4793544;29;20065;-92
2022/04/30 00:51:23;;;;;;;0.10;0.10;;;;;;;;;;4793561;29;20499;-92
2022/04/30 00:53:53;;;;;;;0.10;0.10;;;;;;;;;;4793645;29;20046;-91
2022/04/30 00:56:24;;;;;;;0.10;0.10;;;;;;;;;;4793562;29;20153;-91
2022/04/30 00:58:50;;;;;;;0.10;0.10;;;;;;;;;;4793383;29;20100;-92
2022/04/30 01:01:16;;;;;;;0.10;0.10;;;;;;;;;;4793587;29;20054;-92
2022/04/30 01:03:42;;;;;;;0.10;0.10;;;;;;;;;;4808522;29;20050;-92
2022/04/30 01:06:09;;;;;;;0.10;0.10;;;;;;;;;;4808284;29;20483;-91
2022/04/30 01:08:36;;;;;;;0.10;0.10;;;;;;;;;;4793343;29;20049;-91
2022/04/30 01:11:06;;;;;;;0.10;0.10;;;;;;;;;;4793255;29;20423;-91
2022/04/30 01:13:35;;;;;;;0.10;0.10;;;;;;;;;;4793352;29;20486;-91
2022/04/30 01:16:05;;;;;;;0.10;0.10;;;;;;;;;;4808123;29;20042;-91
2022/04/30 01:18:34;;;;;;;0.10;0.10;;;;;;;;;;4793062;29;20038;-91
2022/04/30 01:21:03;;;;;;;0.45;0.22;;;;;;;;;;4793522;29;20395;-92
2022/04/30 01:23:29;;;;;;;0.10;0.10;;;;;;;;;;4793377;29;20099;-91
2022/04/30 01:25:55;;;;;;;0.10;0.10;;;;;;;;;;4793065;29;20042;-92
2022/04/30 01:28:21;;;;;;;0.10;0.10;;;;;;;;;;4793312;29;20125;-92
2022/04/30 01:30:47;;;;;;;0.10;0.10;;;;;;;;;;4808021;29;20046;-92
2022/04/30 01:38:42;;;;;;;0.10;0.10;;;;;;;;;;4810375;29;20050;-93
2022/04/30 01:41:08;;;;;;;0.10;0.10;;;;;;;;;;4792843;29;20043;-92
2022/04/30 01:43:34;;;;;;;0.10;0.10;;;;;;;;;;4792578;29;20145;-91
2022/04/30 01:46:01;;;;;;;0.47;0.30;;;;;;;;;;4806986;29;20038;-91
2022/04/30 01:48:27;;;;;;;0.10;0.10;;;;;;;;;;4792415;29;20049;-90
2022/04/30 01:50:54;;;;;;;0.10;0.10;;;;;;;;;;4807552;29;20046;-91
2022/04/30 01:53:20;;;;;;;0.10;0.10;;;;;;;;;;4792932;29;20054;-91
2022/04/30 01:55:46;;;;;;;0.20;0.20;;;;;;;;;;4792353;29;20137;-91
2022/04/30 01:58:13;;;;;;;0.10;0.10;;;;;;;;;;4807274;29;20086;-92
2022/04/30 02:00:39;;;;;;;0.10;0.10;;;;;;;;;;4792822;29;20069;-91
2022/04/30 02:03:08;;;;;;;0.10;0.10;;;;;;;;;;4792715;29;20411;-91
2022/04/30 02:05:34;;;;;;;0.10;0.10;;;;;;;;;;4807690;29;20057;-92
2022/04/30 02:08:03;;;;;;;0.10;0.10;;;;;;;;;;4807763;29;20053;-92
2022/04/30 02:10:29;;;;;;;0.10;0.10;;;;;;;;;;4792665;29;20043;-92
2022/04/30 02:12:55;;;;;;;0.20;0.20;;;;;;;;;;4792572;29;20049;-92
2022/04/30 02:15:21;;;;;;;0.10;0.10;;;;;;;;;;4807955;29;20046;-93
2022/04/30 02:17:48;;;;;;;0.10;0.10;;;;;;;;;;4822747;29;20159;-92
2022/04/30 02:20:18;;;;;;;0.10;0.10;;;;;;;;;;4792716;29;20046;-92
2022/04/30 02:22:44;;;;;;;0.10;0.10;;;;;;;;;;4807864;29;20077;-92
2022/04/30 02:25:12;;;;;;;0.10;0.10;;;;;;;;;;4792660;29;20050;-92
2022/04/30 02:27:39;;;;;;;0.10;0.10;;;;;;;;;;4792481;29;20043;-91
2022/04/30 02:30:08;;;;;;;0.10;0.10;;;;;;;;;;4792702;29;20509;-91
2022/04/30 02:32:40;;;;;;;0.10;0.10;;;;;;;;;;4792400;29;20145;-93
2022/04/30 02:35:07;;;;;;;0.10;0.10;;;;;;;;;;4807279;29;20043;-91
2022/04/30 02:37:35;;;;;;;0.25;0.25;;;;;;;;;;4792460;29;20078;-91
2022/04/30 02:40:01;;;;;;;0.10;0.10;;;;;;;;;;4792529;29;20218;-92
2022/04/30 02:42:27;;;;;;;0.10;0.10;;;;;;;;;;4807060;29;20046;-91
2022/04/30 02:44:53;;;;;;;0.10;0.10;;;;;;;;;;4792274;29;20050;-91
2022/04/30 02:47:19;;;;;;;0.10;0.10;;;;;;;;;;4792258;29;20051;-91
2022/04/30 02:49:45;;;;;;;0.10;0.10;;;;;;;;;;4807523;29;20051;-90
2022/04/30 02:52:11;;;;;;;0.17;0.17;;;;;;;;;;4806840;29;20128;-91
2022/04/30 02:54:37;;;;;;;0.10;0.10;;;;;;;;;;4792089;29;20058;-91
2022/04/30 02:57:03;;;;;;;0.10;0.10;;;;;;;;;;4809495;29;20061;-91
2022/04/30 03:02:14;;;;;;;0.10;0.10;;;;;;;;;;4812580;29;20054;-92
2022/04/30 03:04:40;;;;;;;0.10;0.10;;;;;;;;;;4795134;29;20101;-91
2022/04/30 03:07:09;;;;;;;0.70;0.40;;;;;;;;;;4795285;29;20050;-92
2022/04/30 03:09:35;;;;;;;0.10;0.10;;;;;;;;;;4795632;29;20050;-91
2022/04/30 03:12:01;;;;;;;0.10;0.10;;;;;;;;;;4795652;29;20051;-91
2022/04/30 03:14:26;;;;;;;0.10;0.10;;;;;;;;;;4810026;29;20038;-93
2022/04/30 03:22:21;;;;;;;0.10;0.10;;;;;;;;;;4812290;29;20050;-91
2022/04/30 03:24:47;;;;;;;0.10;0.10;;;;;;;;;;4794940;29;20054;-91
2022/04/30 03:27:17;;;;;;;0.10;0.10;;;;;;;;;;4795154;29;20053;-91
2022/04/30 03:29:44;;;;;;;0.10;0.10;;;;;;;;;;4795774;29;20110;-92
2022/04/30 03:32:10;;;;;;;0.10;0.10;;;;;;;;;;4825427;29;20368;-92
2022/04/30 03:34:36;;;;;;;0.10;0.10;;;;;;;;;;4810299;29;20042;-92
2022/04/30 03:37:03;;;;;;;0.10;0.10;;;;;;;;;;4811158;29;20141;-92
2022/04/30 03:39:29;;;;;;;0.10;0.10;;;;;;;;;;4802116;29;20050;-91
2022/04/30 03:41:55;;;;;;;0.10;0.10;;;;;;;;;;4825721;29;20043;-92
2022/04/30 03:44:21;;;;;;;0.10;0.10;;;;;;;;;;4808639;29;20107;-91
2022/04/30 03:46:47;;;;;;;0.10;0.10;;;;;;;;;;4805189;29;20137;-92
2022/04/30 03:49:13;;;;;;;0.10;0.10;;;;;;;;;;4822604;29;20042;-93
2022/04/30 03:51:39;;;;;;;0.10;0.10;;;;;;;;;;4816625;29;20091;-92
2022/04/30 03:54:06;;;;;;;0.10;0.10;;;;;;;;;;4831728;29;20061;-91
2022/04/30 03:56:32;;;;;;;0.10;0.10;;;;;;;;;;4829594;29;20087;-90
2022/04/30 03:58:58;;;;;;;0.20;0.20;;;;;;;;;;4796650;29;20062;-92
2022/04/30 04:01:24;;;;;;;0.10;0.10;;;;;;;;;;4794535;29;20047;-92
2022/04/30 04:03:50;;;;;;;0.10;0.10;;;;;;;;;;4794439;29;20050;-91
2022/04/30 04:06:19;;;;;;;0.10;0.10;;;;;;;;;;4794471;29;20058;-91
2022/04/30 04:08:50;;;;;;;0.10;0.10;;;;;;;;;;4808750;29;20509;-93
2022/04/30 04:11:18;;;;;;;0.10;0.10;;;;;;;;;;4794875;29;20046;-92
2022/04/30 04:19:18;;;;;;;0.10;0.10;;;;;;;;;;4811527;29;20061;-92
2022/04/30 04:21:44;;;;;;;0.10;0.10;;;;;;;;;;4794487;29;20043;-92
2022/04/30 04:26:58;;;;;;;0.10;0.10;;;;;;;;;;4824705;29;20085;-92
2022/04/30 04:29:24;;;;;;;0.10;0.10;;;;;;;;;;4794020;29;20049;-91
2022/04/30 04:31:50;;;;;;;0.10;0.10;;;;;;;;;;4809205;29;20442;-93
2022/04/30 04:34:16;;;;;;;0.10;0.10;;;;;;;;;;4793608;29;20042;-91
2022/04/30 04:36:42;;;;;;;0.10;0.10;;;;;;;;;;4809127;29;20107;-92
2022/04/30 04:39:12;;;;;;;0.10;0.10;;;;;;;;;;4809261;29;20129;-93
2022/04/30 04:41:39;;;;;;;0.10;0.10;;;;;;;;;;4809090;29;20050;-91
2022/04/30 04:44:05;;;;;;;0.10;0.10;;;;;;;;;;4809004;29;20046;-92
2022/04/30 04:46:32;;;;;;;0.10;0.10;;;;;;;;;;4793595;29;20054;-92
2022/04/30 04:48:58;;;;;;;0.10;0.10;;;;;;;;;;4824669;29;20057;-92
2022/04/30 04:51:23;;;;;;;0.10;0.10;;;;;;;;;;4808745;29;20043;-93
2022/04/30 04:53:50;;;;;;;0.10;0.10;;;;;;;;;;4808432;29;20046;-92
2022/04/30 04:56:15;;;;;;;0.10;0.10;;;;;;;;;;4793576;29;20058;-92
2022/04/30 04:58:41;;;;;;;0.10;0.10;;;;;;;;;;4793704;29;20042;-92
2022/04/30 05:01:07;;;;;;;0.10;0.10;;;;;;;;;;4793644;29;20091;-92
2022/04/30 05:03:34;;;;;;;0.10;0.10;;;;;;;;;;4793658;29;20056;-91
2022/04/30 05:06:00;;;;;;;0.10;0.10;;;;;;;;;;4823975;29;20402;-92
2022/04/30 05:08:26;;;;;;;0.10;0.10;;;;;;;;;;4808147;29;20156;-93
2022/04/30 05:10:52;;;;;;;0.10;0.10;;;;;;;;;;4808423;29;20078;-92
2022/04/30 05:13:18;;;;;;;0.10;0.10;;;;;;;;;;4808333;29;20380;-91
2022/04/30 05:15:44;;;;;;;0.10;0.10;;;;;;;;;;4809598;29;20133;-93
2022/04/30 05:18:10;;;;;;;0.40;0.40;;;;;;;;;;4793319;29;20049;-92
2022/04/30 05:20:36;;;;;;;0.10;0.10;;;;;;;;;;4793861;29;20057;-91
2022/04/30 05:23:02;;;;;;;0.10;0.10;;;;;;;;;;4808295;29;20053;-91
2022/04/30 05:25:28;;;;;;;0.10;0.10;;;;;;;;;;4793273;29;20118;-94
2022/04/30 05:27:54;;;;;;;0.10;0.10;;;;;;;;;;4794094;29;20502;-91
2022/04/30 05:30:20;;;;;;;0.10;0.10;;;;;;;;;;4793136;29;20049;-94
2022/04/30 05:32:46;;;;;;;0.10;0.10;;;;;;;;;;4793217;29;20074;-93
2022/04/30 05:35:12;;;;;;;0.10;0.10;;;;;;;;;;4793051;29;20510;-94
2022/04/30 05:37:40;;;;;;;0.10;0.10;;;;;;;;;;4793257;29;20480;-94
2022/04/30 05:40:06;;;;;;;0.10;0.10;;;;;;;;;;4793204;29;20142;-93
2022/04/30 05:42:32;;;;;;;0.10;0.10;;;;;;;;;;4793179;29;20061;-92
2022/04/30 05:45:01;;;;;;;0.10;0.10;;;;;;;;;;4808138;29;20050;-93
2022/04/30 05:47:29;;;;;;;0.10;0.10;;;;;;;;;;4793457;29;20071;-93
2022/04/30 05:50:02;;;;;;;0.10;0.10;;;;;;;;;;4809546;29;20130;-93
2022/04/30 05:52:28;;;;;;;0.10;0.10;;;;;;;;;;4793199;29;20394;-94
2022/04/30 05:54:54;;;;;;;0.10;0.10;;;;;;;;;;4808039;29;20145;-94
2022/04/30 05:57:20;;;;;;;0.10;0.10;;;;;;;;;;4793266;29;20118;-93
2022/04/30 05:59:48;;;;;;;0.20;0.20;;;;;;;;;;4792946;29;20050;-94
2022/04/30 06:02:17;;;;;;;0.10;0.10;;;;;;;;;;4808494;29;20103;-93
2022/04/30 06:04:43;;;;;;;0.10;0.10;;;;;;;;;;4792948;29;20444;-93
2022/04/30 06:07:10;;;;;;;0.10;0.10;;;;;;;;;;4808006;29;20194;-94
2022/04/30 06:09:35;;;;;;;0.10;0.10;;;;;;;;;;4793221;29;20507;-94
2022/04/30 06:15:28;;;;;;;0.10;0.10;;;;;;;;;;4826150;29;20065;-95
2022/04/30 06:17:55;;;;;;;0.10;0.10;;;;;;;;;;4793981;29;20106;-93
2022/04/30 06:20:21;;;;;;;0.10;0.10;;;;;;;;;;4808024;29;20057;-94
2022/04/30 06:22:48;;;;;;;0.10;0.10;;;;;;;;;;4792458;29;20487;-94
2022/04/30 06:25:14;;;;;;;0.20;0.20;;;;;;;;;;4793061;29;20099;-92
2022/04/30 06:27:40;;;;;;;0.20;0.20;;;;;;;;;;4792524;29;20056;-92
2022/04/30 06:30:06;;;;;;;0.10;0.10;;;;;;;;;;4792770;29;20502;-92
2022/04/30 06:32:32;;;;;;;0.10;0.10;;;;;;;;;;4810670;29;20057;-93
2022/04/30 06:34:59;;;;;;;0.10;0.10;;;;;;;;;;4810672;29;20053;-91
2022/04/30 06:37:25;;;;;;;0.10;0.10;;;;;;;;;;4810505;29;20134;-95
2022/04/30 06:39:51;;;;;;;0.10;0.10;;;;;;;;;;4795827;29;20483;-92
2022/04/30 06:42:17;;;;;;;0.10;0.10;;;;;;;;;;4795558;29;20082;-91
2022/04/30 06:44:43;;;;;;;0.10;0.10;;;;;;;;;;4810343;29;20615;-90
2022/04/30 06:47:09;;;;;;;0.10;0.10;;;;;;;;;;4795480;29;20196;-90
2022/04/30 06:49:35;;;;;;;0.10;0.10;;;;;;;;;;4824581;29;20084;-90
2022/04/30 06:52:01;;;;;;;0.10;0.10;;;;;;;;;;4810028;29;20526;-91
2022/04/30 06:57:11;;;;;;;0.10;0.10;;;;;;;;;;4815536;29;20133;-93
2022/04/30 06:59:40;;;;;;;0.10;0.10;;;;;;;;;;4798694;29;20093;-92
2022/04/30 07:02:07;;;;;;;0.10;0.10;;;;;;;;;;4813873;29;20191;-93
2022/04/30 07:04:33;;;;;;;0.10;0.10;;;;;;;;;;4798193;29;20107;-91
2022/04/30 07:06:59;;;;;;;0.10;0.10;;;;;;;;;;4812887;29;20081;-92
2022/04/30 07:09:28;;;;;;;0.10;0.10;;;;;;;;;;4797965;29;20046;-92
2022/04/30 07:11:54;;;;;;;0.15;0.15;;;;;;;;;;4798071;29;20045;-90
2022/04/30 07:14:20;;;;;;;0.10;0.10;;;;;;;;;;4797937;29;20098;-91
2022/04/30 07:16:46;;;;;;;0.10;0.10;;;;;;;;;;4797745;29;20102;-91
2022/04/30 07:19:12;;;;;;;0.10;0.10;;;;;;;;;;4797732;29;20464;-90
2022/04/30 07:21:38;;;;;;;0.10;0.10;;;;;;;;;;4798014;29;20465;-91
2022/04/30 07:24:04;;;;;;;0.10;0.10;;;;;;;;;;4797664;29;20410;-92
2022/04/30 07:26:30;;;;;;;0.10;0.10;;;;;;;;;;4812300;29;20046;-91
2022/04/30 07:28:56;;;;;;;0.10;0.10;;;;;;;;;;4797633;29;20463;-90
2022/04/30 07:31:22;;;;;;;0.10;0.10;;;;;;;;;;4812490;29;20056;-92
2022/04/30 07:33:51;;;;;;;0.10;0.10;;;;;;;;;;4812575;29;20042;-91
2022/04/30 07:36:17;;;;;;;0.13;0.13;;;;;;;;;;4799226;29;20046;-90
2022/04/30 07:38:43;;;;;;;0.10;0.10;;;;;;;;;;4812957;29;20046;-90
2022/04/30 07:41:09;;;;;;;0.47;0.47;;;;;;;;;;4797654;29;20049;-91
2022/04/30 07:43:35;;;;;;;0.30;0.30;;;;;;;;;;4796082;29;20398;-89
2022/04/30 07:46:01;;;;;;;0.10;0.10;;;;;;;;;;4797543;29;20094;-93
2022/04/30 07:48:27;;;;;;;0.10;0.10;;;;;;;;;;4797690;29;20045;-92
2022/04/30 07:50:57;;;;;;;0.20;0.20;;;;;;;;;;4796890;29;20045;-89
2022/04/30 07:53:23;;;;;;;0.20;0.20;;;;;;;;;;4797997;29;20068;-91
2022/04/30 07:55:49;;;;;;;0.10;0.10;;;;;;;;;;4797033;29;20183;-91
2022/04/30 07:58:15;;;;;;;0.13;0.13;;;;;;;;;;4812040;29;20085;-89
2022/04/30 08:00:41;;;;;;;0.10;0.10;;;;;;;;;;4797353;29;20053;-89
2022/04/30 08:03:07;;;;;;;0.10;0.10;;;;;;;;;;4812174;29;20132;-89
2022/04/30 08:05:34;;;;;;;0.10;0.10;;;;;;;;;;4818603;29;20053;-90
2022/04/30 08:08:00;;;;;;;0.10;0.10;;;;;;;;;;4804960;29;20056;-89
2022/04/30 08:10:26;;;;;;;0.10;0.10;;;;;;;;;;4831721;29;20046;-89
2022/04/30 08:12:55;;;;;;;0.20;0.20;;;;;;;;;;4811804;29;20081;-89
2022/04/30 08:15:22;;;;;;;0.10;0.10;;;;;;;;;;4798941;29;20450;-88
2022/04/30 08:17:48;;;;;;;0.10;0.10;;;;;;;;;;4817387;29;20050;-89
2022/04/30 08:20:13;;;;;;;0.10;0.10;;;;;;;;;;4814621;29;20053;-90
2022/04/30 08:22:39;;;;;;;0.20;0.20;;;;;;;;;;4811267;29;20046;-90
2022/04/30 08:25:06;;;;;;;0.20;0.20;;;;;;;;;;4796526;29;20077;-89
2022/04/30 08:27:32;;;;;;;0.10;0.10;;;;;;;;;;4795942;29;20046;-89
2022/04/30 08:29:58;;;;;;;0.10;0.10;;;;;;;;;;4795959;29;20555;-90
2022/04/30 08:32:25;;;;;;;0.10;0.10;;;;;;;;;;4811259;29;20126;-92
2022/04/30 08:34:51;;;;;;;0.30;0.30;;;;;;;;;;4796150;29;20385;-90
2022/04/30 08:37:17;;;;;;;0.10;0.10;;;;;;;;;;4826156;29;20057;-89
2022/04/30 08:39:45;;;;;;;0.17;0.17;;;;;;;;;;4810954;29;20058;-90
2022/04/30 08:42:12;;;;;;;0.10;0.10;;;;;;;;;;4795892;29;20049;-90
2022/04/30 08:44:38;;;;;;;0.13;0.13;;;;;;;;;;4795949;29;20057;-89
2022/04/30 08:47:04;;;;;;;0.10;0.10;;;;;;;;;;4812372;29;20046;-91
2022/04/30 08:49:33;;;;;;;0.10;0.10;;;;;;;;;;4796534;29;20056;-90
2022/04/30 08:51:59;;;;;;;0.10;0.10;;;;;;;;;;4811056;29;20041;-91
2022/04/30 08:54:25;;;;;;;0.10;0.10;;;;;;;;;;4811161;29;20425;-90
2022/04/30 08:56:52;;;;;;;0.10;0.10;;;;;;;;;;4810883;29;20053;-91
2022/04/30 08:59:18;;;;;;;0.10;0.10;;;;;;;;;;4796263;29;20050;-93
2022/04/30 09:01:45;;;;;;;0.10;0.10;;;;;;;;;;4811072;29;20082;-91
2022/04/30 09:04:11;;;;;;;0.10;0.10;;;;;;;;;;4810952;29;20069;-90
2022/04/30 09:06:44;;;;;;;0.10;0.10;;;;;;;;;;4825888;29;20098;-90
2022/04/30 09:09:10;;;;;;;0.10;0.10;;;;;;;;;;4795711;29;20042;-89
2022/04/30 09:11:39;;;;;;;0.10;0.10;;;;;;;;;;4795693;29;20053;-88
2022/04/30 09:14:05;;;;;;;0.10;0.10;;;;;;;;;;4795896;29;20042;-91
2022/04/30 09:16:34;;;;;;;0.20;0.20;;;;;;;;;;4797069;29;20041;-91
2022/04/30 09:19:04;;;;;;;0.10;0.10;;;;;;;;;;4826091;29;20056;-90
2022/04/30 09:21:30;;;;;;;0.10;0.10;;;;;;;;;;4795947;29;20050;-90
2022/04/30 09:24:03;;;;;;;0.20;0.20;;;;;;;;;;4784487;29;20133;-90
2022/04/30 09:26:39;;;;;;;0.15;0.15;;;;;;;;;;4807021;29;20089;-90
2022/04/30 09:29:26;;;;;;;0.10;0.10;;;;;;;;;;4817857;29;20046;-90
2022/04/30 09:31:53;;;;;;;0.10;0.10;;;;;;;;;;4810856;29;20436;-91
2022/04/30 09:39:49;;;;;;;0.10;0.10;;;;;;;;;;4795457;29;20406;-93
2022/04/30 09:42:15;;;;;;;0.10;0.10;;;;;;;;;;4778002;29;20050;-91
2022/04/30 09:44:41;;;;;;;0.10;0.10;;;;;;;;;;4792946;29;20054;-92
2022/04/30 09:47:07;;;;;;;0.57;0.20;;;;;;;;;;4792716;29;20050;-91
2022/04/30 09:55:06;;;;;;;0.10;0.10;;;;;;;;;;4794060;29;20062;-90
2022/04/30 09:57:35;;;;;;;0.20;0.20;;;;;;;;;;4777010;29;20099;-90
2022/04/30 10:00:02;;;;;;;0.20;0.20;;;;;;;;;;4791903;29;20054;-91
2022/04/30 10:02:28;;;;;;;0.10;0.10;;;;;;;;;;4778165;29;20038;-91
2022/04/30 10:04:55;;;;;;;0.10;0.10;;;;;;;;;;4777964;29;20129;-92
2022/04/30 10:07:21;;;;;;;0.13;0.13;;;;;;;;;;4781181;29;20126;-93
2022/04/30 10:09:50;;;;;;;0.10;0.10;;;;;;;;;;4781529;29;20556;-92
2022/04/30 10:12:33;;;;;;;0.20;0.20;;;;;;;;;;4799159;29;20050;-92
2022/04/30 10:14:59;;;;;;;0.10;0.10;;;;;;;;;;4796239;29;20098;-92
2022/04/30 10:17:27;;;;;;;0.10;0.10;;;;;;;;;;4796839;29;20050;-90
2022/04/30 10:20:00;;;;;;;0.10;0.10;;;;;;;;;;4780686;29;20107;-90
2022/04/30 10:22:27;;;;;;;0.10;0.10;;;;;;;;;;4780270;29;20046;-89
2022/04/30 10:24:56;;;;;;;0.20;0.20;;;;;;;;;;4780349;29;20510;-89
2022/04/30 10:27:22;;;;;;;0.20;0.20;;;;;;;;;;4795245;29;20432;-91
2022/04/30 10:29:58;;;;;;;0.10;0.10;;;;;;;;;;4795342;29;20043;-90
2022/04/30 10:32:27;;;;;;;0.50;0.50;;;;;;;;;;4780058;29;20125;-90
2022/04/30 10:34:53;;;;;;;0.10;0.10;;;;;;;;;;4810056;29;20050;-90
2022/04/30 10:37:35;;;;;;;0.10;0.10;;;;;;;;;;4780424;29;20102;-90
2022/04/30 10:40:05;;;;;;;0.20;0.20;;;;;;;;;;4795063;29;20042;-90
2022/04/30 10:42:44;;;;;;;0.20;0.20;;;;;;;;;;4795291;29;20117;-92
2022/04/30 10:45:13;;;;;;;0.10;0.10;;;;;;;;;;4780278;29;20054;-89
2022/04/30 10:47:56;;;;;;;0.10;0.10;;;;;;;;;;4795054;29;20042;-88
2022/04/30 10:50:23;;;;;;;0.10;0.10;;;;;;;;;;4794990;29;20503;-88
2022/04/30 10:52:50;;;;;;;0.10;0.10;;;;;;;;;;4780244;29;20048;-89
2022/04/30 10:55:17;;;;;;;0.10;0.10;;;;;;;;;;4795190;29;20065;-88
2022/04/30 10:57:43;;;;;;;0.10;0.10;;;;;;;;;;4779547;29;20530;-88
2022/04/30 11:00:10;;;;;;;0.10;0.10;;;;;;;;;;4779623;29;20046;-89
2022/04/30 11:02:36;;;;;;;0.10;0.10;;;;;;;;;;4797124;29;20050;-89
2022/04/30 11:05:06;;;;;;;0.10;0.10;;;;;;;;;;4810921;29;20046;-89
2022/04/30 11:07:35;;;;;;;0.20;0.20;;;;;;;;;;4810612;29;20042;-91
2022/04/30 11:10:06;;;;;;;0.10;0.10;;;;;;;;;;4780068;29;20050;-91
2022/04/30 11:12:32;;;;;;;0.10;0.10;;;;;;;;;;4779773;29;20069;-92
2022/04/30 11:14:58;;;;;;;0.10;0.10;;;;;;;;;;4783141;29;20499;-92
2022/04/30 11:17:25;;;;;;;0.10;0.10;;;;;;;;;;4795880;29;20050;-91
2022/04/30 11:19:51;;;;;;;0.22;0.20;;;;;;;;;;4794778;29;20133;-90
2022/04/30 11:22:19;;;;;;;0.10;0.10;;;;;;;;;;4810079;29;20050;-90
2022/04/30 11:24:45;;;;;;;0.10;0.10;;;;;;;;;;4779704;29;20111;-90
2022/04/30 11:27:12;;;;;;;0.10;0.10;;;;;;;;;;4795022;29;20046;-94
2022/04/30 11:29:48;;;;;;;0.10;0.10;;;;;;;;;;4780240;29;20063;-92
2022/04/30 11:32:21;;;;;;;0.10;0.10;;;;;;;;;;4793185;29;20042;-90
2022/04/30 11:34:47;;;;;;;0.10;0.10;;;;;;;;;;4794472;29;20046;-90
2022/04/30 11:37:13;;;;;;;0.10;0.10;;;;;;;;;;4808919;29;20054;-91
2022/04/30 11:39:41;;;;;;;0.10;0.10;;;;;;;;;;4809342;29;20134;-90
2022/04/30 11:42:07;;;;;;;0.10;0.10;;;;;;;;;;4809181;29;20060;-90
2022/04/30 11:44:33;;;;;;;0.10;0.10;;;;;;;;;;4809027;29;20042;-89
2022/04/30 11:46:59;;;;;;;0.10;0.10;;;;;;;;;;4793902;29;20493;-90
2022/04/30 11:49:25;;;;;;;0.10;0.10;;;;;;;;;;4793936;29;20046;-93
2022/04/30 11:51:52;;;;;;;0.10;0.10;;;;;;;;;;4808754;29;20043;-90
2022/04/30 11:54:19;;;;;;;0.20;0.20;;;;;;;;;;4808422;29;20038;-90
2022/04/30 11:56:46;;;;;;;0.10;0.10;;;;;;;;;;4793814;29;20137;-91
2022/04/30 11:59:12;;;;;;;0.10;0.10;;;;;;;;;;4794464;29;20177;-92
2022/04/30 12:01:39;;;;;;;0.10;0.10;;;;;;;;;;4794027;29;20046;-92
2022/04/30 12:04:08;;;;;;;0.10;0.10;;;;;;;;;;4793626;29;20050;-90
2022/04/30 12:06:34;;;;;;;0.10;0.10;;;;;;;;;;4808645;29;20103;-91
2022/04/30 12:09:00;;;;;;;0.10;0.10;;;;;;;;;;4794151;29;20042;-89
2022/04/30 12:11:26;;;;;;;0.20;0.20;;;;;;;;;;4799709;29;20043;-91
2022/04/30 12:13:56;;;;;;;0.10;0.10;;;;;;;;;;4823786;29;20049;-88
2022/04/30 12:16:22;;;;;;;0.10;0.10;;;;;;;;;;4835308;29;20050;-91
2022/04/30 12:24:46;;;;;;;0.10;0.10;;;;;;;;;;4839141;29;20046;-90
2022/04/30 12:27:21;;;;;;;0.10;0.10;;;;;;;;;;4798261;29;20042;-90
2022/04/30 12:29:47;;;;;;;0.10;0.10;;;;;;;;;;4810819;29;20458;-90
2022/04/30 12:32:17;;;;;;;0.13;0.13;;;;;;;;;;4811259;29;20098;-91
2022/04/30 12:34:44;;;;;;;0.10;0.10;;;;;;;;;;4811709;29;20060;-90
2022/04/30 12:37:11;;;;;;;0.10;0.10;;;;;;;;;;4811315;29;20077;-90
2022/04/30 12:39:37;;;;;;;0.25;0.25;;;;;;;;;;4810836;29;20046;-90
2022/04/30 12:42:03;;;;;;;0.10;0.10;;;;;;;;;;4796221;29;20061;-90
2022/04/30 12:44:30;;;;;;;0.10;0.10;;;;;;;;;;4826779;29;20105;-92
2022/04/30 12:46:56;;;;;;;0.10;0.10;;;;;;;;;;4795901;29;20054;-91
2022/04/30 12:49:22;;;;;;;0.20;0.20;;;;;;;;;;4811263;29;20045;-91
2022/04/30 12:51:49;;;;;;;0.10;0.10;;;;;;;;;;4811537;29;20501;-92
2022/04/30 12:54:16;;;;;;;0.10;0.10;;;;;;;;;;4796047;29;20079;-91
2022/04/30 12:56:43;;;;;;;0.10;0.10;;;;;;;;;;4811365;29;20570;-94
2022/04/30 12:59:09;;;;;;;0.10;0.10;;;;;;;;;;4796313;29;20091;-91
2022/04/30 13:01:36;;;;;;;0.10;0.10;;;;;;;;;;4811213;29;20081;-91
2022/04/30 13:04:03;;;;;;;0.10;0.10;;;;;;;;;;4810916;29;20052;-91
2022/04/30 13:06:29;;;;;;;0.10;0.10;;;;;;;;;;4795894;29;20107;-90
2022/04/30 13:14:24;;;;;;;0.10;0.10;;;;;;;;;;4813296;29;20049;-91
2022/04/30 13:16:50;;;;;;;0.10;0.10;;;;;;;;;;4796001;29;20042;-91
2022/04/30 13:19:16;;;;;;;0.10;0.10;;;;;;;;;;4795572;29;20490;-91
2022/04/30 13:21:46;;;;;;;0.15;0.15;;;;;;;;;;4825697;29;20046;-90
2022/04/30 13:24:12;;;;;;;0.10;0.10;;;;;;;;;;4796116;29;20042;-91
2022/04/30 13:26:38;;;;;;;0.10;0.10;;;;;;;;;;4810583;29;20048;-89
2022/04/30 13:29:04;;;;;;;0.15;0.15;;;;;;;;;;4810439;29;20046;-89
2022/04/30 13:31:30;;;;;;;0.10;0.10;;;;;;;;;;4795473;29;20125;-88
2022/04/30 13:33:57;;;;;;;0.10;0.10;;;;;;;;;;4810244;29;20486;-88
2022/04/30 13:36:23;;;;;;;0.10;0.10;;;;;;;;;;4795258;29;20081;-89
2022/04/30 13:38:49;;;;;;;0.10;0.10;;;;;;;;;;4810224;29;20544;-90
2022/04/30 13:41:15;;;;;;;0.10;0.10;;;;;;;;;;4794807;29;20483;-90
2022/04/30 13:43:41;;;;;;;0.20;0.20;;;;;;;;;;4795617;29;20081;-91
2022/04/30 13:46:07;;;;;;;0.10;0.10;;;;;;;;;;4795660;29;20098;-89
2022/04/30 13:48:33;;;;;;;0.10;0.10;;;;;;;;;;4794914;29;20054;-89
2022/04/30 13:51:00;;;;;;;0.10;0.10;;;;;;;;;;4795571;29;20549;-90
2022/04/30 13:53:27;;;;;;;0.10;0.10;;;;;;;;;;4795576;29;20041;-89
2022/04/30 13:55:54;;;;;;;0.20;0.20;;;;;;;;;;4794997;29;20447;-89
2022/04/30 13:58:20;;;;;;;0.20;0.20;;;;;;;;;;4810209;29;20537;-90
2022/04/30 14:00:46;;;;;;;0.57;0.57;;;;;;;;;;4795013;29;20053;-90
2022/04/30 14:03:14;;;;;;;0.10;0.10;;;;;;;;;;4795068;29;20110;-89
2022/04/30 14:05:40;;;;;;;0.10;0.10;;;;;;;;;;4794755;29;20053;-88
2022/04/30 14:08:06;;;;;;;0.20;0.20;;;;;;;;;;4794844;29;20042;-88
2022/04/30 14:10:32;;;;;;;0.10;0.10;;;;;;;;;;4810077;29;20065;-90
2022/04/30 14:14:55;;;;;;;0.30;0.30;;;;;;;;;;4794869;29;20483;-89
2022/04/30 14:15:44;;;;;;;0.10;0.10;;;;;;;;;;4811841;29;20046;-88
2022/04/30 14:18:15;;;;;;;0.20;0.20;;;;;;;;;;4809666;29;20054;-89
2022/04/30 14:20:43;;;;;;;0.43;0.43;;;;;;;;;;4795484;29;20050;-89
2022/04/30 14:23:11;;;;;;;0.10;0.10;;;;;;;;;;4794901;29;20332;-88
2022/04/30 14:25:38;;;;;;;0.20;0.20;;;;;;;;;;4810057;29;20085;-89
2022/04/30 14:28:05;;;;;;;0.15;0.15;;;;;;;;;;4809428;29;20045;-89
2022/04/30 14:30:32;;;;;;;0.10;0.10;;;;;;;;;;4809637;29;20041;-88
2022/04/30 14:32:58;;;;;;;0.10;0.10;;;;;;;;;;4824706;29;20538;-89
2022/04/30 14:35:24;;;;;;;0.20;0.20;;;;;;;;;;4794534;29;20129;-88
2022/04/30 14:37:50;;;;;;;0.20;0.20;;;;;;;;;;4809773;29;20054;-87
2022/04/30 14:40:17;;;;;;;0.20;0.20;;;;;;;;;;4794405;29;20050;-92
2022/04/30 14:42:44;;;;;;;0.10;0.10;;;;;;;;;;4794626;29;20457;-88
2022/04/30 14:45:10;;;;;;;0.10;0.10;;;;;;;;;;4794427;29;20050;-88
2022/04/30 14:47:36;;;;;;;0.63;0.63;;;;;;;;;;4794204;29;20042;-89
2022/04/30 14:50:03;;;;;;;0.20;0.20;;;;;;;;;;4809861;29;20045;-89
2022/04/30 14:52:30;;;;;;;0.10;0.10;;;;;;;;;;4825996;29;20045;-90
2022/04/30 14:54:56;;;;;;;0.10;0.10;;;;;;;;;;4809263;29;20107;-89
2022/04/30 14:57:22;;;;;;;0.15;0.15;;;;;;;;;;4794887;29;20483;-89
2022/04/30 14:59:48;;;;;;;0.20;0.20;;;;;;;;;;4809941;29;20098;-91
2022/04/30 15:02:14;;;;;;;0.10;0.10;;;;;;;;;;4794472;29;20530;-89
2022/04/30 15:04:40;;;;;;;0.10;0.10;;;;;;;;;;4794488;29;20046;-89
2022/04/30 15:07:06;;;;;;;0.43;0.43;;;;;;;;;;4794629;29;20192;-89
2022/04/30 15:09:32;;;;;;;0.10;0.10;;;;;;;;;;4794533;29;20102;-90
2022/04/30 15:11:58;;;;;;;0.10;0.10;;;;;;;;;;4824357;29;20043;-90
2022/04/30 15:14:24;;;;;;;0.30;0.30;;;;;;;;;;4794335;29;20054;-89
2022/04/30 15:16:50;;;;;;;0.25;0.20;;;;;;;;;;4809206;29;20047;-88
2022/04/30 15:19:17;;;;;;;0.28;0.28;;;;;;;;;;4824255;29;20502;-89
2022/04/30 15:21:43;;;;;;;0.10;0.10;;;;;;;;;;4794237;29;20057;-89
2022/04/30 15:24:10;;;;;;;0.10;0.10;;;;;;;;;;4809219;29;20054;-88
2022/04/30 15:26:36;;;;;;;0.10;0.10;;;;;;;;;;4809261;29;20042;-88
2022/04/30 15:29:02;;;;;;;0.20;0.20;;;;;;;;;;4794154;29;20464;-89
2022/04/30 15:31:28;;;;;;;0.20;0.20;;;;;;;;;;4809291;29;20043;-90